createdAt,value
2019-02-15T00:00:31.291Z,-2.2
2019-02-15T00:01:38.483Z,-2.2
2019-02-15T00:02:45.677Z,-2.2
2019-02-15T00:03:52.865Z,-2.3
2019-02-15T00:05:00.058Z,-2.3
2019-02-15T00:06:06.814Z,-2.3
2019-02-15T00:07:14.006Z,-2.4
2019-02-15T00:08:21.194Z,-2.4
2019-02-15T00:09:28.385Z,-2.4
2019-02-15T00:10:35.298Z,-2.4
2019-02-15T00:11:42.481Z,-2.4
2019-02-15T00:12:49.675Z,-2.4
2019-02-15T00:13:56.605Z,-2.4
2019-02-15T00:15:03.816Z,-2.4
2019-02-15T00:16:11.005Z,-2.3
2019-02-15T00:17:18.196Z,-2.3
2019-02-15T00:18:25.392Z,-2.3
2019-02-15T00:19:32.629Z,-2.4
2019-02-15T00:20:39.820Z,-2.3
2019-02-15T00:21:47.027Z,-2.3
2019-02-15T00:22:54.216Z,-2.3
2019-02-15T00:24:01.134Z,-2.4
2019-02-15T00:25:08.327Z,-2.4
2019-02-15T00:26:17.208Z,-2.4
2019-02-15T00:27:24.397Z,-2.4
2019-02-15T00:28:31.588Z,-2.4
2019-02-15T00:29:38.793Z,-2.4
2019-02-15T00:30:45.972Z,-2.5
2019-02-15T00:31:53.161Z,-2.5
2019-02-15T00:33:00.356Z,-2.5
2019-02-15T00:34:07.554Z,-2.5
2019-02-15T00:35:14.747Z,-2.5
2019-02-15T00:36:21.940Z,-2.4
2019-02-15T00:37:28.847Z,-2.5
2019-02-15T00:38:36.041Z,-2.5
2019-02-15T00:39:43.234Z,-2.4
2019-02-15T00:40:50.423Z,-2.4
2019-02-15T00:41:57.618Z,-2.5
2019-02-15T00:43:04.806Z,-2.5
2019-02-15T00:44:11.726Z,-2.5
2019-02-15T00:45:18.921Z,-2.5
2019-02-15T00:46:26.111Z,-2.5
2019-02-15T00:47:33.303Z,-2.5
2019-02-15T00:48:40.551Z,-2.5
2019-02-15T00:49:47.745Z,-2.5
2019-02-15T00:50:54.638Z,-2.5
2019-02-15T00:52:02.028Z,-2.5
2019-02-15T00:53:08.945Z,-2.5
2019-02-15T00:54:15.858Z,-2.5
2019-02-15T00:55:23.048Z,-2.5
2019-02-15T00:56:30.239Z,-2.3
2019-02-15T00:57:37.429Z,-2.3
2019-02-15T00:58:44.625Z,-2.2
2019-02-15T00:59:51.815Z,-2.2
2019-02-15T01:00:58.730Z,-2.3
2019-02-15T01:02:05.921Z,-2.3
2019-02-15T01:03:13.115Z,-2.4
2019-02-15T01:04:20.307Z,-2.5
2019-02-15T01:05:27.501Z,-2.5
2019-02-15T01:06:34.425Z,-2.4
2019-02-15T01:07:41.617Z,-2.4
2019-02-15T01:08:48.807Z,-2.4
2019-02-15T01:09:56.003Z,-2.5
2019-02-15T01:11:03.195Z,-2.6
2019-02-15T01:12:10.388Z,-2.6
2019-02-15T01:13:17.579Z,-2.6
2019-02-15T01:14:24.768Z,-2.6
2019-02-15T01:15:31.965Z,-2.7
2019-02-15T01:16:39.155Z,-2.7
2019-02-15T01:17:45.792Z,-2.7
2019-02-15T01:18:52.986Z,-2.8
2019-02-15T01:19:59.954Z,-2.8
2019-02-15T01:21:07.140Z,-2.8
2019-02-15T01:22:14.354Z,-2.8
2019-02-15T01:23:21.545Z,-2.8
2019-02-15T01:24:28.735Z,-2.8
2019-02-15T01:25:35.658Z,-2.8
2019-02-15T01:26:42.573Z,-2.8
2019-02-15T01:27:49.763Z,-2.8
2019-02-15T01:28:56.684Z,-2.8
2019-02-15T01:30:03.875Z,-2.8
2019-02-15T01:31:11.065Z,-2.8
2019-02-15T01:32:18.257Z,-2.8
2019-02-15T01:33:25.177Z,-2.8
2019-02-15T01:34:32.090Z,-2.8
2019-02-15T01:35:38.736Z,-2.8
2019-02-15T23:00:13.335Z,-0.7
2019-02-15T23:01:20.528Z,-0.7
2019-02-15T23:02:27.764Z,-0.7
2019-02-15T23:03:34.957Z,-0.7
2019-02-15T23:04:42.152Z,-0.8
2019-02-15T23:05:49.352Z,-0.8
2019-02-15T23:06:56.548Z,-0.9
2019-02-15T23:08:03.743Z,-0.9
2019-02-15T23:09:10.934Z,-0.9
2019-02-15T23:10:18.130Z,-1
2019-02-15T23:11:25.322Z,-1
2019-02-15T23:12:32.518Z,-1
2019-02-15T23:13:39.711Z,-1
2019-02-15T23:14:46.902Z,-1
2019-02-15T23:15:54.263Z,-1
2019-02-15T23:17:01.454Z,-1
2019-02-15T23:18:08.647Z,-1
2019-02-15T23:19:15.567Z,-1
2019-02-15T23:20:22.758Z,-1
2019-02-15T23:21:29.951Z,-1
2019-02-15T23:22:37.210Z,-1
2019-02-15T23:23:44.393Z,-1
2019-02-15T23:24:51.586Z,-1
2019-02-15T23:25:58.793Z,-1
2019-02-15T23:27:05.983Z,-1.1
2019-02-15T23:28:13.176Z,-1.1
2019-02-15T23:29:20.406Z,-1.1
2019-02-15T23:30:27.593Z,-1.1
2019-02-15T23:31:34.830Z,-1.2
2019-02-15T23:32:42.027Z,-1.2
2019-02-15T23:33:49.229Z,-1.3
2019-02-15T23:34:55.883Z,-1.3
2019-02-15T23:36:02.803Z,-1.2
2019-02-15T23:37:10.011Z,-1.2
2019-02-15T23:38:17.199Z,-1.2
2019-02-15T23:39:24.391Z,-1.2
2019-02-15T23:40:31.589Z,-1.2
2019-02-15T23:41:38.793Z,-1.3
2019-02-15T23:42:45.991Z,-1.3
2019-02-15T23:43:53.182Z,-1.3
2019-02-15T23:45:00.373Z,-1.3
2019-02-15T23:46:07.621Z,-1.3
2019-02-15T23:47:14.815Z,-1.4
2019-02-15T23:48:21.472Z,-1.3
2019-02-15T23:49:28.676Z,-1.3
2019-02-15T23:50:35.591Z,-1.4
2019-02-15T23:51:42.789Z,-1.4
2019-02-15T23:52:49.711Z,-1.4
2019-02-15T23:53:56.632Z,-1.4
2019-02-15T23:55:03.278Z,-1.4
2019-02-15T23:56:10.474Z,-1.4
2019-02-15T23:57:17.667Z,-1.4
2019-02-15T23:58:24.859Z,-1.5
2019-02-15T23:59:31.776Z,-1.5
